createdAt,value
2023-04-12T00:00:47.366Z,1000.34
2023-04-12T00:01:47.410Z,1000.28
2023-04-12T00:02:47.422Z,1000.24
2023-04-12T00:03:47.458Z,1000.26
2023-04-12T00:04:47.383Z,1000.28
2023-04-12T00:05:47.328Z,1000.24
2023-04-12T00:06:47.303Z,1000.26
2023-04-12T00:07:47.290Z,1000.25
2023-04-12T00:08:47.304Z,1000.27
2023-04-12T00:09:47.268Z,1000.19
2023-04-12T00:10:47.263Z,1000.20
2023-04-12T00:11:47.261Z,1000.16
2023-04-12T00:12:47.236Z,1000.16
2023-04-12T00:13:47.221Z,1000.13
2023-04-12T00:14:47.210Z,1000.07
2023-04-12T00:15:47.254Z,1000.02
2023-04-12T00:16:47.199Z,1000.00
2023-04-12T00:17:47.229Z,1000.03
2023-04-12T00:18:47.169Z,1000.00
2023-04-12T00:19:47.160Z,999.98
2023-04-12T00:20:47.146Z,999.99
2023-04-12T00:21:47.160Z,999.99
2023-04-12T00:22:47.137Z,1000.01
2023-04-12T00:23:47.115Z,999.95
2023-04-12T00:24:47.141Z,999.93
2023-04-12T00:25:47.105Z,999.87
2023-04-12T00:26:47.084Z,999.91
2023-04-12T00:27:47.077Z,999.90
2023-04-12T00:28:47.055Z,999.92
2023-04-12T00:29:47.049Z,999.87
2023-04-12T00:30:47.042Z,999.87
2023-04-12T00:31:47.051Z,999.82
2023-04-12T00:32:47.059Z,999.76
2023-04-12T00:33:47.003Z,999.72
2023-04-12T00:34:46.996Z,999.73
2023-04-12T00:35:47.016Z,999.70
2023-04-12T00:36:46.964Z,999.72
2023-04-12T00:37:46.960Z,999.70
2023-04-12T00:38:46.945Z,999.74
2023-04-12T00:39:46.937Z,999.68
2023-04-12T00:40:46.971Z,999.63
2023-04-12T00:41:46.908Z,999.52
2023-04-12T00:42:46.899Z,999.52
2023-04-12T00:43:46.882Z,999.49
2023-04-12T00:44:46.878Z,999.44
2023-04-12T00:45:46.877Z,999.49
2023-04-12T00:46:47.038Z,999.39
2023-04-12T00:47:46.909Z,999.41
2023-04-12T00:48:46.833Z,999.39
2023-04-12T00:49:46.818Z,999.40
2023-04-12T00:50:46.808Z,999.40
2023-04-12T00:51:46.806Z,999.35
2023-04-12T00:52:46.793Z,999.33
2023-04-12T00:53:46.782Z,999.30
2023-04-12T00:54:46.766Z,999.27
2023-04-12T00:55:46.767Z,999.31
2023-04-12T00:56:46.769Z,999.32
2023-04-12T00:57:46.732Z,999.25
2023-04-12T00:58:46.727Z,999.24
2023-04-12T00:59:46.704Z,999.23
2023-04-12T01:00:46.736Z,999.21
2023-04-12T01:01:46.725Z,999.21
2023-04-12T01:02:46.831Z,999.17
2023-04-12T01:03:46.734Z,999.15
2023-04-12T01:04:46.676Z,999.16
2023-04-12T01:05:46.630Z,999.16
2023-04-12T01:06:46.676Z,999.11
2023-04-12T01:07:46.632Z,999.08
2023-04-12T01:08:46.603Z,999.05
2023-04-12T01:09:46.586Z,998.99
2023-04-12T01:10:46.590Z,998.99
2023-04-12T01:11:46.562Z,998.96
2023-04-12T01:12:46.585Z,998.99
2023-04-12T01:13:46.542Z,998.97
2023-04-12T01:14:46.535Z,998.90
2023-04-12T01:15:46.525Z,998.92
2023-04-12T01:16:46.633Z,998.87
2023-04-12T01:17:46.518Z,998.81
2023-04-12T01:18:46.495Z,998.86
2023-04-12T01:19:46.494Z,998.86
2023-04-12T01:20:46.465Z,998.77
2023-04-12T01:21:46.472Z,998.83
2023-04-12T01:22:46.437Z,998.79
2023-04-12T01:23:46.428Z,998.83
2023-04-12T01:24:46.420Z,998.78
2023-04-12T01:25:46.460Z,998.72
2023-04-12T01:26:46.428Z,998.77
2023-04-12T01:27:46.424Z,998.70
2023-04-12T01:28:46.415Z,998.69
2023-04-12T01:29:46.358Z,998.63
2023-04-12T01:30:46.354Z,998.65
2023-04-12T01:31:46.375Z,998.68
2023-04-12T01:32:46.345Z,998.64
2023-04-12T01:33:46.324Z,998.56
2023-04-12T01:34:46.303Z,998.61
2023-04-12T01:35:46.304Z,998.57
2023-04-12T01:36:46.292Z,998.58
2023-04-12T01:37:46.276Z,998.54
2023-04-12T01:38:46.263Z,998.54
2023-04-12T01:39:46.247Z,998.49
2023-04-12T01:40:46.250Z,998.51
2023-04-12T01:41:46.225Z,998.54
2023-04-12T01:42:46.268Z,998.54
2023-04-12T01:43:46.213Z,998.53
2023-04-12T01:44:46.213Z,998.56
2023-04-12T01:45:46.248Z,998.47
2023-04-12T01:46:46.168Z,998.39
2023-04-12T01:47:46.186Z,998.46
2023-04-12T01:48:46.158Z,998.35
2023-04-12T01:49:46.140Z,998.28
2023-04-12T01:50:46.131Z,998.29
2023-04-12T01:51:46.122Z,998.29
2023-04-12T01:52:46.104Z,998.32
2023-04-12T01:53:46.128Z,998.20
2023-04-12T01:54:46.083Z,998.24
2023-04-12T01:55:46.073Z,998.22
2023-04-12T01:56:46.062Z,998.10
2023-04-12T01:57:46.058Z,998.14
2023-04-12T01:58:46.046Z,998.17
2023-04-12T01:59:46.030Z,998.15
2023-04-12T02:00:46.056Z,998.07
2023-04-12T02:01:46.026Z,998.13
2023-04-12T02:02:46.125Z,998.14
2023-04-12T02:03:46.089Z,998.10
2023-04-12T02:04:45.967Z,998.17
2023-04-12T02:05:45.959Z,998.13
2023-04-12T02:06:45.953Z,998.10
2023-04-12T02:07:45.956Z,997.99
2023-04-12T02:08:45.932Z,997.95
2023-04-12T02:09:45.933Z,997.97
2023-04-12T02:10:45.924Z,997.95
2023-04-12T02:11:45.895Z,997.92
2023-04-12T02:12:45.882Z,997.92
2023-04-12T02:13:45.864Z,997.93
2023-04-12T02:14:45.863Z,997.86
2023-04-12T02:15:45.855Z,997.89
2023-04-12T02:16:45.905Z,997.77
2023-04-12T02:17:45.890Z,997.76
2023-04-12T02:18:45.818Z,997.72
2023-04-12T02:19:45.804Z,997.76
2023-04-12T02:20:45.811Z,997.65
2023-04-12T02:21:45.793Z,997.62
2023-04-12T02:22:45.770Z,997.58
2023-04-12T02:23:45.758Z,997.53
2023-04-12T02:24:45.747Z,997.51
2023-04-12T02:25:45.734Z,997.53
2023-04-12T02:26:45.731Z,997.48
2023-04-12T02:27:45.709Z,997.50
2023-04-12T02:28:45.698Z,997.49
2023-04-12T02:29:45.687Z,997.46
2023-04-12T02:30:45.739Z,997.37
2023-04-12T02:31:45.668Z,997.36
2023-04-12T02:32:45.724Z,997.29
2023-04-12T02:33:45.642Z,997.25
2023-04-12T02:34:45.627Z,997.22
2023-04-12T02:35:45.710Z,997.24
2023-04-12T02:36:45.623Z,997.18
2023-04-12T02:37:45.599Z,997.23
2023-04-12T02:38:45.582Z,997.21
2023-04-12T02:39:45.582Z,997.20
2023-04-12T02:40:45.558Z,997.20
2023-04-12T02:41:45.559Z,997.20
2023-04-12T02:42:45.544Z,997.18
2023-04-12T02:43:45.529Z,997.20
2023-04-12T02:44:45.518Z,997.19
2023-04-12T02:45:45.553Z,997.05
2023-04-12T02:46:45.525Z,997.00
2023-04-12T02:47:45.527Z,997.04
2023-04-12T02:48:45.497Z,997.04
2023-04-12T02:49:45.472Z,996.99
2023-04-12T02:50:45.452Z,997.11
2023-04-12T02:51:45.442Z,996.95
2023-04-12T02:52:45.433Z,996.93
2023-04-12T02:53:45.425Z,996.86
2023-04-12T02:54:45.406Z,996.94
2023-04-12T02:55:45.404Z,996.91
2023-04-12T02:56:45.394Z,996.82
2023-04-12T02:57:45.380Z,996.76
2023-04-12T02:58:45.365Z,996.83
2023-04-12T02:59:45.358Z,996.69
2023-04-12T03:00:45.337Z,996.70
2023-04-12T03:01:45.393Z,996.71
2023-04-12T03:02:45.446Z,996.63
2023-04-12T03:03:45.380Z,996.66
2023-04-12T03:04:45.311Z,996.58
2023-04-12T03:05:45.285Z,996.59
2023-04-12T03:06:45.268Z,996.57
2023-04-12T03:07:45.282Z,996.59
2023-04-12T03:08:45.250Z,996.55
2023-04-12T03:09:45.246Z,996.47
2023-04-12T03:10:45.224Z,996.40
2023-04-12T03:11:45.215Z,996.47
2023-04-12T03:12:45.211Z,996.47
2023-04-12T03:13:45.200Z,996.45
2023-04-12T03:14:45.191Z,996.45
2023-04-12T03:15:45.206Z,996.43
2023-04-12T03:16:45.158Z,996.40
2023-04-12T03:17:45.235Z,996.38
2023-04-12T03:18:45.133Z,996.39
2023-04-12T03:19:45.134Z,996.37
2023-04-12T03:20:47.524Z,996.32
2023-04-12T03:21:45.107Z,996.25
2023-04-12T03:22:45.099Z,996.17
2023-04-12T03:23:45.095Z,996.06
2023-04-12T03:24:45.062Z,996.05
2023-04-12T03:25:45.060Z,996.00
2023-04-12T03:26:45.039Z,995.98
2023-04-12T03:27:45.028Z,995.88
2023-04-12T03:28:45.030Z,995.82
2023-04-12T03:29:45.037Z,995.86
2023-04-12T03:30:45.025Z,995.72
2023-04-12T03:31:44.986Z,995.84
2023-04-12T03:32:45.001Z,995.76
2023-04-12T03:33:44.972Z,995.79
2023-04-12T03:34:44.961Z,995.76
2023-04-12T03:35:45.040Z,995.74
2023-04-12T03:36:44.971Z,995.65
2023-04-12T03:37:44.914Z,995.62
2023-04-12T03:38:44.922Z,995.59
2023-04-12T03:39:44.901Z,995.64
2023-04-12T03:40:44.892Z,995.46
2023-04-12T03:41:44.897Z,995.49
2023-04-12T03:42:44.856Z,995.37
2023-04-12T03:43:44.846Z,995.40
2023-04-12T03:44:44.841Z,995.35
2023-04-12T03:45:44.828Z,995.36
2023-04-12T03:46:44.841Z,995.45
2023-04-12T03:47:44.832Z,995.47
2023-04-12T03:48:44.799Z,995.30
2023-04-12T03:49:51.397Z,995.27
2023-04-12T03:50:45.771Z,995.33
2023-04-12T03:51:44.764Z,995.24
2023-04-12T03:52:44.783Z,995.35
2023-04-12T03:53:44.734Z,995.28
2023-04-12T03:54:44.718Z,995.31
2023-04-12T03:55:44.732Z,995.26
2023-04-12T03:56:46.127Z,995.20
2023-04-12T03:57:44.690Z,995.12
2023-04-12T03:58:44.681Z,995.23
2023-04-12T03:59:44.667Z,995.15
2023-04-12T04:00:44.671Z,995.15
2023-04-12T04:01:44.690Z,995.17
2023-04-12T04:02:44.680Z,995.20
2023-04-12T04:03:45.896Z,995.22
2023-04-12T04:04:44.641Z,995.29
2023-04-12T04:05:44.603Z,995.12
2023-04-12T04:06:44.587Z,995.12
2023-04-12T04:07:44.578Z,995.03
2023-04-12T04:08:44.592Z,995.02
2023-04-12T04:09:44.574Z,994.91
2023-04-12T04:10:44.538Z,994.88
2023-04-12T04:11:44.535Z,994.95
2023-04-12T04:12:44.519Z,994.87
2023-04-12T04:13:44.509Z,994.87
2023-04-12T04:14:44.506Z,994.85
2023-04-12T04:15:44.510Z,994.82
2023-04-12T04:16:44.530Z,994.82
2023-04-12T04:17:44.479Z,994.92
2023-04-12T04:18:44.446Z,994.74
2023-04-12T04:19:44.441Z,994.82
2023-04-12T04:20:44.435Z,994.81
2023-04-12T04:21:44.414Z,994.80
2023-04-12T04:22:44.419Z,994.75
2023-04-12T04:23:44.398Z,994.75
2023-04-12T04:24:44.405Z,994.72
2023-04-12T04:25:44.383Z,994.75
2023-04-12T04:26:44.372Z,994.69
2023-04-12T04:27:44.347Z,994.66
2023-04-12T04:28:44.339Z,994.65
2023-04-12T04:29:44.329Z,994.69
2023-04-12T04:30:44.322Z,994.60
2023-04-12T04:31:44.396Z,994.54
2023-04-12T04:32:44.348Z,994.45
2023-04-12T04:33:44.278Z,994.50
2023-04-12T04:34:44.270Z,994.46
2023-04-12T04:35:44.331Z,994.50
2023-04-12T04:36:44.276Z,994.48
2023-04-12T04:37:44.250Z,994.50
2023-04-12T04:38:44.238Z,994.44
2023-04-12T04:39:44.215Z,994.47
2023-04-12T04:40:44.229Z,994.44
2023-04-12T04:41:44.192Z,994.46
2023-04-12T04:42:44.203Z,994.40
2023-04-12T04:43:44.168Z,994.41
2023-04-12T04:44:44.158Z,994.36
2023-04-12T04:45:44.181Z,994.32
2023-04-12T04:46:44.130Z,994.34
2023-04-12T04:47:44.167Z,994.35
2023-04-12T04:48:44.135Z,994.45
2023-04-12T04:49:44.103Z,994.36
2023-04-12T04:50:44.088Z,994.32
2023-04-12T04:51:51.170Z,994.35
2023-04-12T04:52:44.063Z,994.71
2023-04-12T04:53:44.065Z,994.27
2023-04-12T04:54:44.066Z,994.26
2023-04-12T04:55:44.032Z,994.24
2023-04-12T04:56:44.048Z,994.27
2023-04-12T04:57:44.024Z,994.24
2023-04-12T04:58:44.003Z,994.23
2023-04-12T04:59:44.003Z,994.11
2023-04-12T05:00:43.989Z,994.19
2023-04-12T05:01:44.045Z,994.14
2023-04-12T05:02:44.138Z,994.11
2023-04-12T05:03:44.022Z,994.19
2023-04-12T05:04:43.939Z,994.19
2023-04-12T05:05:43.913Z,994.20
2023-04-12T05:06:43.922Z,994.10
2023-04-12T05:07:43.899Z,994.09
2023-04-12T05:08:43.878Z,994.12
2023-04-12T05:09:43.870Z,994.11
2023-04-12T05:10:43.885Z,994.07
2023-04-12T05:11:43.846Z,994.07
2023-04-12T05:12:43.923Z,994.11
2023-04-12T05:13:43.832Z,994.03
2023-04-12T05:14:48.159Z,993.96
2023-04-12T05:15:44.835Z,994.04
2023-04-12T05:16:43.806Z,993.96
2023-04-12T05:17:43.830Z,993.94
2023-04-12T05:18:43.767Z,993.93
2023-04-12T05:19:43.779Z,993.89
2023-04-12T05:20:43.766Z,993.94
2023-04-12T05:21:43.734Z,993.91
2023-04-12T05:22:43.736Z,993.87
2023-04-12T05:23:43.711Z,993.88
2023-04-12T05:24:43.693Z,993.89
2023-04-12T05:25:43.697Z,993.80
2023-04-12T05:26:43.680Z,993.84
2023-04-12T05:27:43.680Z,993.80
2023-04-12T05:28:43.676Z,993.89
2023-04-12T05:29:43.655Z,993.81
2023-04-12T05:30:43.659Z,993.86
2023-04-12T05:31:43.633Z,993.80
2023-04-12T05:32:43.632Z,993.81
2023-04-12T05:33:43.606Z,993.81
2023-04-12T05:34:43.612Z,993.79
2023-04-12T05:35:43.600Z,993.77
2023-04-12T05:36:43.563Z,993.81
2023-04-12T05:37:43.548Z,993.77
2023-04-12T05:38:43.551Z,993.75
2023-04-12T05:39:43.544Z,993.81
2023-04-12T05:40:43.514Z,993.72
2023-04-12T05:41:43.528Z,993.72
2023-04-12T05:42:43.499Z,993.69
2023-04-12T05:43:43.478Z,993.75
2023-04-12T05:44:43.491Z,993.79
2023-04-12T05:45:43.461Z,993.64
2023-04-12T05:46:43.473Z,993.73
2023-04-12T05:47:43.510Z,993.81
2023-04-12T05:48:43.434Z,993.62
2023-04-12T05:49:43.425Z,993.71
2023-04-12T05:50:43.398Z,993.62
2023-04-12T05:51:43.406Z,993.64
2023-04-12T05:52:43.379Z,993.67
2023-04-12T05:53:43.386Z,993.54
2023-04-12T05:54:43.355Z,993.59
2023-04-12T05:55:43.352Z,993.54
2023-04-12T05:56:43.350Z,993.46
2023-04-12T05:57:43.331Z,993.50
2023-04-12T05:58:43.364Z,993.49
2023-04-12T05:59:43.313Z,993.49
2023-04-12T06:00:43.318Z,993.44
2023-04-12T06:01:43.325Z,993.49
2023-04-12T06:02:43.501Z,993.41
2023-04-12T06:03:43.362Z,993.48
2023-04-12T06:04:50.690Z,993.40
2023-04-12T06:05:44.369Z,993.42
2023-04-12T06:06:43.225Z,993.40
2023-04-12T06:07:43.208Z,993.38
2023-04-12T06:08:43.213Z,993.40
2023-04-12T06:09:43.186Z,993.26
2023-04-12T06:10:43.181Z,993.27
2023-04-12T06:11:43.170Z,993.30
2023-04-12T06:12:43.181Z,993.28
2023-04-12T06:13:43.166Z,993.28
2023-04-12T06:14:43.131Z,993.27
2023-04-12T06:15:43.141Z,993.31
2023-04-12T06:16:43.175Z,993.24
2023-04-12T06:17:43.142Z,993.22
2023-04-12T06:18:43.105Z,993.25
2023-04-12T06:19:43.081Z,993.19
2023-04-12T06:20:43.069Z,993.04
2023-04-12T06:21:43.062Z,993.13
2023-04-12T06:22:43.064Z,993.09
2023-04-12T06:23:43.054Z,993.03
2023-04-12T06:24:43.162Z,993.07
2023-04-12T06:25:43.007Z,993.12
2023-04-12T06:26:43.101Z,992.96
2023-04-12T06:27:43.055Z,993.02
2023-04-12T06:28:42.974Z,992.98
2023-04-12T06:29:42.960Z,992.95
2023-04-12T06:30:42.957Z,992.99
2023-04-12T06:31:42.982Z,992.96
2023-04-12T06:32:42.949Z,993.03
2023-04-12T06:33:42.907Z,992.92
2023-04-12T06:34:42.919Z,992.91
2023-04-12T06:35:42.921Z,992.88
2023-04-12T06:36:42.881Z,992.87
2023-04-12T06:37:42.912Z,992.95
2023-04-12T06:38:42.875Z,992.77
2023-04-12T06:39:42.853Z,992.92
2023-04-12T06:40:42.849Z,992.78
2023-04-12T06:41:42.830Z,992.77
2023-04-12T06:42:42.809Z,992.79
2023-04-12T06:43:42.877Z,992.74
2023-04-12T06:44:42.796Z,992.75
2023-04-12T06:45:42.786Z,992.74
2023-04-12T06:46:42.941Z,992.73
2023-04-12T06:47:42.801Z,992.71
2023-04-12T06:48:42.778Z,992.65
2023-04-12T06:49:42.899Z,992.59
2023-04-12T06:50:42.712Z,992.67
2023-04-12T06:51:42.705Z,992.67
2023-04-12T06:52:42.693Z,992.57
2023-04-12T06:53:42.675Z,992.64
2023-04-12T06:54:42.696Z,992.56
2023-04-12T06:55:42.661Z,992.67
2023-04-12T06:56:42.647Z,992.56
2023-04-12T06:57:42.644Z,992.61
2023-04-12T06:58:42.625Z,992.49
2023-04-12T06:59:42.614Z,992.52
2023-04-12T07:00:42.642Z,992.51
2023-04-12T07:01:43.614Z,992.46
2023-04-12T07:02:42.792Z,992.48
2023-04-12T07:03:42.646Z,992.52
2023-04-12T07:04:42.600Z,992.47
2023-04-12T07:05:42.575Z,992.42
2023-04-12T07:06:42.541Z,992.42
2023-04-12T07:07:44.108Z,992.49
2023-04-12T07:08:42.509Z,992.46
2023-04-12T07:09:42.502Z,992.44
2023-04-12T07:10:42.495Z,992.49
2023-04-12T07:11:42.475Z,992.45
2023-04-12T07:12:42.516Z,992.48
2023-04-12T07:13:42.454Z,992.45
2023-04-12T07:14:44.634Z,992.39
2023-04-12T07:15:42.458Z,992.39
2023-04-12T07:16:42.519Z,992.37
2023-04-12T07:17:42.490Z,992.24
2023-04-12T07:18:42.409Z,992.28
2023-04-12T07:19:43.513Z,992.28
2023-04-12T07:20:42.394Z,992.26
2023-04-12T07:21:42.359Z,992.26
2023-04-12T07:22:42.359Z,992.22
2023-04-12T07:23:42.364Z,992.19
2023-04-12T07:24:42.329Z,992.24
2023-04-12T07:25:42.320Z,992.16
2023-04-12T07:26:42.325Z,992.12
2023-04-12T07:27:42.292Z,992.17
2023-04-12T07:28:42.286Z,992.13
2023-04-12T07:29:42.292Z,992.18
2023-04-12T07:30:42.266Z,992.10
2023-04-12T07:31:42.277Z,992.04
2023-04-12T07:32:42.307Z,992.09
2023-04-12T07:33:43.410Z,992.10
2023-04-12T07:34:42.278Z,992.04
2023-04-12T07:35:42.221Z,992.07
2023-04-12T07:36:42.220Z,992.04
2023-04-12T07:37:42.194Z,992.05
2023-04-12T07:38:42.181Z,992.08
2023-04-12T07:39:42.233Z,992.07
2023-04-12T07:40:42.157Z,992.00
2023-04-12T07:41:42.139Z,992.04
2023-04-12T07:42:42.127Z,992.03
2023-04-12T07:43:42.122Z,992.00
2023-04-12T07:44:42.128Z,991.97
2023-04-12T07:45:42.112Z,991.96
2023-04-12T07:46:42.123Z,991.98
2023-04-12T07:47:42.110Z,992.01
2023-04-12T07:48:42.064Z,991.91
2023-04-12T07:49:42.081Z,991.94
2023-04-12T07:50:42.081Z,991.99
2023-04-12T07:51:42.019Z,991.91
2023-04-12T07:52:42.173Z,991.91
2023-04-12T07:53:42.024Z,991.90
2023-04-12T07:54:42.015Z,991.91
2023-04-12T07:55:41.988Z,991.82
2023-04-12T07:56:42.015Z,991.81
2023-04-12T07:57:41.967Z,991.81
2023-04-12T07:58:41.968Z,991.79
2023-04-12T07:59:41.939Z,991.79
2023-04-12T08:00:41.937Z,991.79
2023-04-12T08:01:42.043Z,991.77
2023-04-12T08:02:42.019Z,991.80
2023-04-12T08:03:42.001Z,991.60
2023-04-12T08:04:42.435Z,991.69
2023-04-12T08:05:41.917Z,991.63
2023-04-12T08:06:41.863Z,991.68
2023-04-12T08:07:41.855Z,991.76
2023-04-12T08:08:42.051Z,991.71
2023-04-12T08:09:41.824Z,991.71
2023-04-12T08:10:41.824Z,991.64
2023-04-12T08:11:41.804Z,991.72
2023-04-12T08:12:41.802Z,991.70
2023-04-12T08:13:41.784Z,991.68
2023-04-12T08:14:41.769Z,991.67
2023-04-12T08:15:41.935Z,991.67
2023-04-12T08:16:41.745Z,991.74
2023-04-12T08:17:41.785Z,991.59
2023-04-12T08:18:41.727Z,991.50
2023-04-12T08:19:41.816Z,991.60
2023-04-12T08:20:41.699Z,991.54
2023-04-12T08:21:41.696Z,991.59
2023-04-12T08:22:41.685Z,991.54
2023-04-12T08:23:41.659Z,991.55
2023-04-12T08:24:41.701Z,991.58
2023-04-12T08:25:41.653Z,991.59
2023-04-12T08:26:41.643Z,991.57
2023-04-12T08:27:41.625Z,991.57
2023-04-12T08:28:41.625Z,991.48
2023-04-12T08:29:41.596Z,991.51
2023-04-12T08:30:41.592Z,991.54
2023-04-12T08:31:41.735Z,991.52
2023-04-12T08:32:41.589Z,991.48
2023-04-12T08:33:41.566Z,991.52
2023-04-12T08:34:42.418Z,991.55
2023-04-12T08:35:41.533Z,991.46
2023-04-12T08:36:41.529Z,991.48
2023-04-12T08:37:41.515Z,991.51
2023-04-12T08:38:46.247Z,991.44
2023-04-12T08:39:41.482Z,991.49
2023-04-12T08:40:41.503Z,991.51
2023-04-12T08:41:41.463Z,991.48
2023-04-12T08:42:41.484Z,991.46
2023-04-12T08:43:41.432Z,991.51
2023-04-12T08:44:41.430Z,991.55
2023-04-12T08:45:41.424Z,991.46
2023-04-12T08:46:41.455Z,991.45
2023-04-12T08:47:41.430Z,991.39
2023-04-12T08:48:41.389Z,991.42
2023-04-12T08:49:41.397Z,991.39
2023-04-12T08:50:41.374Z,991.35
2023-04-12T08:51:41.345Z,991.39
2023-04-12T08:52:41.339Z,991.32
2023-04-12T08:53:41.326Z,991.37
2023-04-12T08:54:41.321Z,991.42
2023-04-12T08:55:41.306Z,991.39
2023-04-12T08:56:41.324Z,991.46
2023-04-12T08:57:41.317Z,991.42
2023-04-12T08:58:41.277Z,991.45
2023-04-12T08:59:41.266Z,991.36
2023-04-12T09:00:41.243Z,991.46
2023-04-12T09:01:41.308Z,991.33
2023-04-12T09:02:41.390Z,991.33
2023-04-12T09:03:41.459Z,991.38
2023-04-12T09:04:41.290Z,991.42
2023-04-12T09:05:41.196Z,991.36
2023-04-12T09:06:41.184Z,991.37
2023-04-12T09:07:41.165Z,991.39
2023-04-12T09:08:41.164Z,991.43
2023-04-12T09:09:41.148Z,991.37
2023-04-12T09:10:41.140Z,991.30
2023-04-12T09:11:41.142Z,991.42
2023-04-12T09:12:41.145Z,991.37
2023-04-12T09:13:41.098Z,991.38
2023-04-12T09:14:41.086Z,991.36
2023-04-12T09:15:41.097Z,991.35
2023-04-12T09:16:41.288Z,991.36
2023-04-12T09:17:41.125Z,991.34
2023-04-12T09:18:41.042Z,991.35
2023-04-12T09:19:41.041Z,991.33
2023-04-12T09:20:41.035Z,991.36
2023-04-12T09:21:41.031Z,991.38
2023-04-12T09:22:40.997Z,991.40
2023-04-12T09:23:40.984Z,991.35
2023-04-12T09:24:40.984Z,991.35
2023-04-12T09:25:40.988Z,991.36
2023-04-12T09:26:40.973Z,991.42
2023-04-12T09:27:40.944Z,991.40
2023-04-12T09:28:40.984Z,991.37
2023-04-12T09:29:40.927Z,991.41
2023-04-12T09:30:40.914Z,991.37
2023-04-12T09:31:40.992Z,991.33
2023-04-12T09:32:40.970Z,991.37
2023-04-12T09:33:40.876Z,991.40
2023-04-12T09:34:40.884Z,991.36
2023-04-12T09:35:40.953Z,991.32
2023-04-12T09:36:40.878Z,991.32
2023-04-12T09:37:40.851Z,991.29
2023-04-12T09:38:40.844Z,991.30
2023-04-12T09:39:40.882Z,991.26
2023-04-12T09:40:40.818Z,991.40
2023-04-12T09:41:40.828Z,991.29
2023-04-12T09:42:40.794Z,991.32
2023-04-12T09:43:40.761Z,991.32
2023-04-12T09:44:40.776Z,991.31
2023-04-12T09:45:40.773Z,991.25
2023-04-12T09:46:40.810Z,991.28
2023-04-12T09:47:40.779Z,991.18
2023-04-12T09:48:40.712Z,991.17
2023-04-12T09:49:40.701Z,991.19
2023-04-12T09:50:40.694Z,991.21
2023-04-12T09:51:40.693Z,991.25
2023-04-12T09:52:40.676Z,991.23
2023-04-12T09:53:40.656Z,991.23
2023-04-12T09:54:40.640Z,991.20
2023-04-12T09:55:40.657Z,991.29
2023-04-12T09:56:40.676Z,991.20
2023-04-12T09:57:40.623Z,991.26
2023-04-12T09:58:40.588Z,991.25
2023-04-12T09:59:40.598Z,991.23
2023-04-12T10:00:40.705Z,991.23
2023-04-12T10:01:40.791Z,991.24
2023-04-12T10:02:40.991Z,991.22
2023-04-12T10:03:40.644Z,991.23
2023-04-12T10:04:40.628Z,991.18
2023-04-12T10:05:40.614Z,991.20
2023-04-12T10:06:40.518Z,991.24
2023-04-12T10:07:40.904Z,991.18
2023-04-12T10:08:40.482Z,991.17
2023-04-12T10:09:40.509Z,991.17
2023-04-12T10:10:40.454Z,991.15
2023-04-12T10:11:40.453Z,991.12
2023-04-12T10:12:40.453Z,991.13
2023-04-12T10:13:40.428Z,991.16
2023-04-12T10:14:40.414Z,991.17
2023-04-12T10:15:40.434Z,991.15
2023-04-12T10:16:40.509Z,991.15
2023-04-12T10:17:40.494Z,991.13
2023-04-12T10:18:40.363Z,991.12
2023-04-12T10:19:40.365Z,991.12
2023-04-12T10:20:40.342Z,991.07
2023-04-12T10:21:40.349Z,991.06
2023-04-12T10:22:40.337Z,991.17
2023-04-12T10:23:40.316Z,991.05
2023-04-12T10:24:40.309Z,991.08
2023-04-12T10:25:40.331Z,991.02
2023-04-12T10:26:40.288Z,991.09
2023-04-12T10:27:40.270Z,991.10
2023-04-12T10:28:40.272Z,991.12
2023-04-12T10:29:40.270Z,991.08
2023-04-12T10:30:40.241Z,991.08
2023-04-12T10:31:40.316Z,991.03
2023-04-12T10:32:40.272Z,991.00
2023-04-12T10:33:40.208Z,991.02
2023-04-12T10:34:40.228Z,991.02
2023-04-12T10:35:40.228Z,990.99
2023-04-12T10:36:40.172Z,990.99
2023-04-12T10:37:40.157Z,990.99
2023-04-12T10:38:40.157Z,991.04
2023-04-12T10:39:40.209Z,990.98
2023-04-12T10:40:40.129Z,990.96
2023-04-12T10:41:40.133Z,991.00
2023-04-12T10:42:40.116Z,990.92
2023-04-12T10:43:40.085Z,990.88
2023-04-12T10:44:40.094Z,990.95
2023-04-12T10:45:40.100Z,990.92
2023-04-12T10:46:40.268Z,990.93
2023-04-12T10:47:40.142Z,990.94
2023-04-12T10:48:40.094Z,990.96
2023-04-12T10:49:40.027Z,990.96
2023-04-12T10:50:40.009Z,990.96
2023-04-12T10:51:40.052Z,990.92
2023-04-12T10:52:47.075Z,990.95
2023-04-12T10:53:39.988Z,990.92
2023-04-12T10:54:40.005Z,990.90
2023-04-12T10:55:39.987Z,990.80
2023-04-12T10:56:40.001Z,990.87
2023-04-12T10:57:39.928Z,990.89
2023-04-12T10:58:39.925Z,990.92
2023-04-12T10:59:47.688Z,990.98
2023-04-12T11:00:40.027Z,991.00
2023-04-12T11:01:40.121Z,991.08
2023-04-12T11:02:40.026Z,991.05
2023-04-12T11:03:39.942Z,991.12
2023-04-12T11:04:40.030Z,991.18
2023-04-12T11:05:40.142Z,991.10
2023-04-12T11:06:39.821Z,991.14
2023-04-12T11:07:39.824Z,991.13
2023-04-12T11:08:39.815Z,991.12
2023-04-12T11:09:39.800Z,991.11
2023-04-12T11:10:39.812Z,991.07
2023-04-12T11:11:39.799Z,991.12
2023-04-12T11:12:39.763Z,991.10
2023-04-12T11:13:39.775Z,991.15
2023-04-12T11:14:39.795Z,991.11
2023-04-12T11:15:39.778Z,991.04
2023-04-12T11:16:39.770Z,991.11
2023-04-12T11:17:39.743Z,991.08
2023-04-12T11:18:39.771Z,991.06
2023-04-12T11:19:39.724Z,991.10
2023-04-12T11:20:39.716Z,991.06
2023-04-12T11:21:39.687Z,991.05
2023-04-12T11:22:39.680Z,991.05
2023-04-12T11:23:39.636Z,991.07
2023-04-12T11:24:39.657Z,991.04
2023-04-12T11:25:39.661Z,991.07
2023-04-12T11:26:39.597Z,991.03
2023-04-12T11:27:39.598Z,991.06
2023-04-12T11:28:39.574Z,990.99
2023-04-12T11:29:39.595Z,990.95
2023-04-12T11:30:39.557Z,990.97
2023-04-12T11:31:39.690Z,990.92
2023-04-12T11:32:39.595Z,990.96
2023-04-12T11:33:39.519Z,990.91
2023-04-12T11:34:39.506Z,990.94
2023-04-12T11:35:39.507Z,990.95
2023-04-12T11:36:39.503Z,990.94
2023-04-12T11:37:39.486Z,990.83
2023-04-12T11:38:39.473Z,990.93
2023-04-12T11:39:39.455Z,990.87
2023-04-12T11:40:39.445Z,990.81
2023-04-12T11:41:39.432Z,990.83
2023-04-12T11:42:39.437Z,990.87
2023-04-12T11:43:39.417Z,990.83
2023-04-12T11:44:55.135Z,990.81
2023-04-12T11:45:40.400Z,990.81
2023-04-12T11:46:39.379Z,990.88
2023-04-12T11:47:39.380Z,990.88
2023-04-12T11:48:39.367Z,990.91
2023-04-12T11:49:39.348Z,990.85
2023-04-12T11:50:39.338Z,990.88
2023-04-12T11:51:39.319Z,990.88
2023-04-12T11:52:39.334Z,990.78
2023-04-12T11:53:39.304Z,990.85
2023-04-12T11:54:39.287Z,990.83
2023-04-12T11:55:39.275Z,990.81
2023-04-12T11:56:39.269Z,990.73
2023-04-12T11:57:39.275Z,990.82
2023-04-12T11:58:39.324Z,990.78
2023-04-12T11:59:39.240Z,990.81
2023-04-12T12:00:39.212Z,990.81
2023-04-12T12:01:39.278Z,990.82
2023-04-12T12:02:46.527Z,990.80
2023-04-12T12:03:40.282Z,990.81
2023-04-12T12:04:39.304Z,990.83
2023-04-12T12:05:39.455Z,990.82
2023-04-12T12:06:39.494Z,990.84
2023-04-12T12:07:39.139Z,990.80
2023-04-12T12:08:39.186Z,990.76
2023-04-12T12:09:39.131Z,990.71
2023-04-12T12:10:52.441Z,990.78
2023-04-12T12:11:40.176Z,990.74
2023-04-12T12:12:39.078Z,990.77
2023-04-12T12:13:40.253Z,990.84
2023-04-12T12:14:39.069Z,990.81
2023-04-12T12:15:39.114Z,990.82
2023-04-12T12:16:39.037Z,990.79
2023-04-12T12:17:39.053Z,990.83
2023-04-12T12:18:39.064Z,990.83
2023-04-12T12:19:39.010Z,990.88
2023-04-12T12:20:39.008Z,990.85
2023-04-12T12:21:38.990Z,990.81
2023-04-12T12:22:38.964Z,990.88
2023-04-12T12:23:38.983Z,990.85
2023-04-12T12:24:41.239Z,990.82
2023-04-12T12:25:38.958Z,990.84
2023-04-12T12:26:38.926Z,990.88
2023-04-12T12:27:38.981Z,990.93